KNUI

Webster Nolf Airport

St Inigoes, Maryland, USA
METAR KNUI 150053Z AUTO 24003KT 10SM SCT060 26/20 A2994 RMK AO2 SLP136 T02560200
Observed Flight Rules
Aug-15 @ 00:53 UTC (13 minutes ago) Visual Flight Rules
Wind Visibility Clouds
240° at 3 knots 10 miles
  • Scattered at 6,000' AGL
Temperatures Readings
Current 26°C / 79°F
Dewpoint 20°C / 68°F
Humidity 70%
Altimeter 29.94" Hg
Pressure 1013.6 hPa
Elevation 7
METAR KNUI 150053Z AUTO 24003KT 10SM SCT060 26/20 A2994 RMK AO2 SLP136 T02560200
Observed Flight Rules
Aug-15 @ 00:53 UTC
(13 minutes ago)
VFR
Wind Visibility
240° at 3 knots 10 miles
Clouds
  • Scattered at 6,000' AGL
Temperature Dewpoint
26°C / 79°F 20°C / 68°F
Humidity Altimeter Pressure
70% 29.94" Hg 1013.6 hPa